Terminal Aerodrome Forecast
Issued by NWS Twin Cities, MN

Home | Current Version | Previous Version | Text Only | Print | Product List | Glossary Off
Versions: 1 2 3 4 5 6 7 8 9 10 11 12 13 14 15 16 17 18 19 20 21 22 23 24 25 26

078
FTUS43 KMPX 030254 AAA
TAFMSP
TAF AMD
KMSP 030254Z 0303/0406 23006KT P6SM -SN OVC019
     FM030500 25004KT P6SM OVC018
     FM031200 21004KT P6SM OVC020
     FM031800 16006KT P6SM BKN035
     FM040200 14008KT P6SM OVC030=

USA.gov is the U.S. government's official web portal to all federal, state and local government web resources and services.